sensor_id;sensor_type;location;lat;lon;timestamp;pressure;altitude;pressure_sealevel;temperature;humidity
67013;BME280;53926;47.406;19.188;2023-01-29T00:02:17;101078.19;;;0.58;100.00
67013;BME280;53926;47.406;19.188;2023-01-29T00:04:44;101074.88;;;0.67;100.00
67013;BME280;53926;47.406;19.188;2023-01-29T00:07:12;101075.75;;;0.56;100.00
67013;BME280;53926;47.406;19.188;2023-01-29T00:09:39;101077.50;;;0.56;100.00
67013;BME280;53926;47.406;19.188;2023-01-29T00:12:05;101076.53;;;0.57;100.00
67013;BME280;53926;47.406;19.188;2023-01-29T00:14:34;101075.75;;;0.56;100.00
67013;BME280;53926;47.406;19.188;2023-01-29T00:17:01;101072.88;;;0.49;100.00
67013;BME280;53926;47.406;19.188;2023-01-29T00:19:28;101070.75;;;0.55;100.00
67013;BME280;53926;47.406;19.188;2023-01-29T00:21:54;101081.59;;;0.47;100.00
67013;BME280;53926;47.406;19.188;2023-01-29T00:24:22;101074.03;;;0.45;100.00
67013;BME280;53926;47.406;19.188;2023-01-29T00:26:49;101079.66;;;0.39;100.00
67013;BME280;53926;47.406;19.188;2023-01-29T00:29:16;101078.91;;;0.48;100.00
67013;BME280;53926;47.406;19.188;2023-01-29T00:31:45;101081.72;;;0.45;100.00
67013;BME280;53926;47.406;19.188;2023-01-29T00:34:11;101095.47;;;0.44;100.00
67013;BME280;53926;47.406;19.188;2023-01-29T00:36:38;101086.03;;;0.45;100.00
67013;BME280;53926;47.406;19.188;2023-01-29T00:39:08;101082.53;;;0.46;100.00
67013;BME280;53926;47.406;19.188;2023-01-29T00:41:40;101083.97;;;0.39;100.00
67013;BME280;53926;47.406;19.188;2023-01-29T00:44:25;101091.53;;;0.40;100.00
67013;BME280;53926;47.406;19.188;2023-01-29T00:47:10;101100.63;;;0.33;100.00
67013;BME280;53926;47.406;19.188;2023-01-29T00:49:56;101096.19;;;0.35;100.00
67013;BME280;53926;47.406;19.188;2023-01-29T00:52:23;101093.78;;;0.22;100.00
67013;BME280;53926;47.406;19.188;2023-01-29T00:54:51;101090.87;;;0.27;100.00
67013;BME280;53926;47.406;19.188;2023-01-29T00:57:21;101098.78;;;0.24;100.00
67013;BME280;53926;47.406;19.188;2023-01-29T00:59:47;101098.09;;;0.10;100.00
67013;BME280;53926;47.406;19.188;2023-01-29T01:02:14;101098.03;;;0.01;100.00
67013;BME280;53926;47.406;19.188;2023-01-29T01:05:00;101104.19;;;-0.13;100.00
67013;BME280;53926;47.406;19.188;2023-01-29T01:07:31;101104.41;;;-0.28;100.00
67013;BME280;53926;47.406;19.188;2023-01-29T01:10:00;101107.31;;;-0.32;100.00
67013;BME280;53926;47.406;19.188;2023-01-29T01:12:45;101103.72;;;-0.30;100.00
67013;BME280;53926;47.406;19.188;2023-01-29T01:15:14;101101.87;;;-0.39;100.00
67013;BME280;53926;47.406;19.188;2023-01-29T01:17:41;101098.75;;;-0.43;100.00
67013;BME280;53926;47.406;19.188;2023-01-29T01:20:11;101093.72;;;-0.44;100.00
67013;BME280;53926;47.406;19.188;2023-01-29T01:22:38;101099.09;;;-0.47;100.00
67013;BME280;53926;47.406;19.188;2023-01-29T01:25:05;101101.87;;;-0.50;100.00
67013;BME280;53926;47.406;19.188;2023-01-29T01:27:31;101106.03;;;-0.72;100.00
67013;BME280;53926;47.406;19.188;2023-01-29T01:30:00;101109.72;;;-0.76;100.00
67013;BME280;53926;47.406;19.188;2023-01-29T01:32:27;101101.75;;;-1.07;100.00
67013;BME280;53926;47.406;19.188;2023-01-29T01:34:54;101103.94;;;-1.14;100.00
67013;BME280;53926;47.406;19.188;2023-01-29T01:37:20;101108.84;;;-1.35;100.00
67013;BME280;53926;47.406;19.188;2023-01-29T01:39:47;101106.69;;;-1.52;100.00
67013;BME280;53926;47.406;19.188;2023-01-29T01:42:14;101111.63;;;-1.86;100.00
67013;BME280;53926;47.406;19.188;2023-01-29T01:45:00;101119.97;;;-1.84;100.00
67013;BME280;53926;47.406;19.188;2023-01-29T01:47:45;101116.56;;;-2.09;100.00
67013;BME280;53926;47.406;19.188;2023-01-29T01:50:33;101126.34;;;-2.03;100.00
67013;BME280;53926;47.406;19.188;2023-01-29T01:53:05;101122.06;;;-2.15;100.00
67013;BME280;53926;47.406;19.188;2023-01-29T01:55:35;101120.97;;;-2.11;100.00
67013;BME280;53926;47.406;19.188;2023-01-29T01:58:12;101126.25;;;-2.01;100.00
67013;BME280;53926;47.406;19.188;2023-01-29T02:00:41;101130.88;;;-1.82;100.00
67013;BME280;53926;47.406;19.188;2023-01-29T02:03:09;101124.06;;;-1.82;100.00
67013;BME280;53926;47.406;19.188;2023-01-29T02:05:56;101126.94;;;-1.99;100.00
67013;BME280;53926;47.406;19.188;2023-01-29T02:08:51;101131.13;;;-1.98;100.00
67013;BME280;53926;47.406;19.188;2023-01-29T02:11:38;101131.59;;;-2.17;100.00
67013;BME280;53926;47.406;19.188;2023-01-29T02:14:08;101122.78;;;-2.00;100.00
67013;BME280;53926;47.406;19.188;2023-01-29T02:16:35;101124.84;;;-2.18;100.00
67013;BME280;53926;47.406;19.188;2023-01-29T02:19:04;101131.78;;;-2.33;100.00
67013;BME280;53926;47.406;19.188;2023-01-29T02:30:22;101136.66;;;-2.68;100.00
67013;BME280;53926;47.406;19.188;2023-01-29T02:32:59;101129.16;;;-3.10;100.00
67013;BME280;53926;47.406;19.188;2023-01-29T02:36:20;101140.25;;;-3.11;100.00
67013;BME280;53926;47.406;19.188;2023-01-29T02:38:40;101138.00;;;-3.16;100.00
67013;BME280;53926;47.406;19.188;2023-01-29T02:41:51;101143.09;;;-3.43;100.00
67013;BME280;53926;47.406;19.188;2023-01-29T02:44:37;101144.97;;;-3.60;100.00
67013;BME280;53926;47.406;19.188;2023-01-29T02:47:18;101151.72;;;-3.87;100.00
67013;BME280;53926;47.406;19.188;2023-01-29T02:50:02;101144.81;;;-3.85;100.00
67013;BME280;53926;47.406;19.188;2023-01-29T02:52:37;101143.38;;;-3.89;100.00
67013;BME280;53926;47.406;19.188;2023-01-29T02:55:12;101156.19;;;-4.05;100.00
67013;BME280;53926;47.406;19.188;2023-01-29T02:57:43;101155.91;;;-4.01;100.00
67013;BME280;53926;47.406;19.188;2023-01-29T03:00:13;101158.38;;;-3.99;100.00
67013;BME280;53926;47.406;19.188;2023-01-29T03:02:50;101165.66;;;-4.07;100.00
67013;BME280;53926;47.406;19.188;2023-01-29T03:08:14;101169.75;;;-4.05;100.00
67013;BME280;53926;47.406;19.188;2023-01-29T03:10:55;101165.56;;;-4.20;100.00
67013;BME280;53926;47.406;19.188;2023-01-29T03:16:20;101176.25;;;-4.01;100.00
67013;BME280;53926;47.406;19.188;2023-01-29T03:19:01;101170.75;;;-4.22;100.00
67013;BME280;53926;47.406;19.188;2023-01-29T03:21:35;101177.91;;;-4.14;100.00
67013;BME280;53926;47.406;19.188;2023-01-29T03:27:27;101175.81;;;-4.22;100.00
67013;BME280;53926;47.406;19.188;2023-01-29T03:30:16;101176.28;;;-4.29;100.00
67013;BME280;53926;47.406;19.188;2023-01-29T03:33:05;101171.63;;;-4.23;100.00
67013;BME280;53926;47.406;19.188;2023-01-29T03:35:39;101182.06;;;-4.27;100.00
67013;BME280;53926;47.406;19.188;2023-01-29T03:38:09;101183.97;;;-4.02;100.00
67013;BME280;53926;47.406;19.188;2023-01-29T03:44:17;101188.91;;;-3.85;100.00
67013;BME280;53926;47.406;19.188;2023-01-29T03:49:19;101193.94;;;-3.56;100.00
67013;BME280;53926;47.406;19.188;2023-01-29T03:54:59;101193.06;;;-3.00;100.00
67013;BME280;53926;47.406;19.188;2023-01-29T04:02:57;101193.59;;;-2.55;100.00
67013;BME280;53926;47.406;19.188;2023-01-29T04:05:32;101193.00;;;-2.33;100.00
67013;BME280;53926;47.406;19.188;2023-01-29T04:08:04;101200.28;;;-2.14;100.00
67013;BME280;53926;47.406;19.188;2023-01-29T04:10:35;101202.63;;;-2.11;100.00
67013;BME280;53926;47.406;19.188;2023-01-29T04:13:07;101192.41;;;-2.11;100.00
67013;BME280;53926;47.406;19.188;2023-01-29T04:15:46;101191.47;;;-1.97;100.00
67013;BME280;53926;47.406;19.188;2023-01-29T04:18:14;101192.87;;;-1.93;100.00
67013;BME280;53926;47.406;19.188;2023-01-29T04:20:40;101196.78;;;-1.87;100.00
67013;BME280;53926;47.406;19.188;2023-01-29T04:23:22;101198.41;;;-1.86;100.00
67013;BME280;53926;47.406;19.188;2023-01-29T04:28:53;101189.50;;;-1.81;100.00
67013;BME280;53926;47.406;19.188;2023-01-29T04:31:27;101191.56;;;-1.86;100.00
67013;BME280;53926;47.406;19.188;2023-01-29T04:34:35;101192.06;;;-1.81;100.00
67013;BME280;53926;47.406;19.188;2023-01-29T04:37:16;101186.63;;;-1.76;100.00
67013;BME280;53926;47.406;19.188;2023-01-29T04:39:55;101181.41;;;-1.74;100.00
67013;BME280;53926;47.406;19.188;2023-01-29T04:42:32;101185.41;;;-1.70;100.00
67013;BME280;53926;47.406;19.188;2023-01-29T04:45:03;101183.56;;;-1.68;100.00
67013;BME280;53926;47.406;19.188;2023-01-29T04:47:56;101185.69;;;-1.62;100.00
67013;BME280;53926;47.406;19.188;2023-01-29T04:50:35;101189.66;;;-1.58;100.00
67013;BME280;53926;47.406;19.188;2023-01-29T04:53:21;101192.38;;;-1.48;100.00
67013;BME280;53926;47.406;19.188;2023-01-29T04:58:57;101185.78;;;-1.51;100.00
67013;BME280;53926;47.406;19.188;2023-01-29T05:01:26;101185.47;;;-1.46;100.00
67013;BME280;53926;47.406;19.188;2023-01-29T05:03:55;101190.78;;;-1.49;100.00
67013;BME280;53926;47.406;19.188;2023-01-29T05:06:23;101191.59;;;-1.49;100.00
67013;BME280;53926;47.406;19.188;2023-01-29T05:08:52;101198.12;;;-1.57;100.00
67013;BME280;53926;47.406;19.188;2023-01-29T05:11:24;101200.91;;;-1.60;100.00
67013;BME280;53926;47.406;19.188;2023-01-29T05:13:52;101190.47;;;-1.57;100.00
67013;BME280;53926;47.406;19.188;2023-01-29T05:16:25;101191.53;;;-1.60;100.00
67013;BME280;53926;47.406;19.188;2023-01-29T05:18:53;101185.66;;;-1.49;100.00
67013;BME280;53926;47.406;19.188;2023-01-29T05:21:20;101193.00;;;-1.45;100.00
67013;BME280;53926;47.406;19.188;2023-01-29T05:26:34;101198.00;;;-1.43;100.00
67013;BME280;53926;47.406;19.188;2023-01-29T05:29:20;101204.84;;;-1.44;100.00
67013;BME280;53926;47.406;19.188;2023-01-29T05:31:47;101196.75;;;-1.37;100.00
67013;BME280;53926;47.406;19.188;2023-01-29T05:34:14;101195.72;;;-1.35;100.00
67013;BME280;53926;47.406;19.188;2023-01-29T05:36:40;101192.75;;;-1.29;100.00
67013;BME280;53926;47.406;19.188;2023-01-29T05:39:07;101194.59;;;-1.31;100.00
67013;BME280;53926;47.406;19.188;2023-01-29T05:41:34;101186.09;;;-1.31;100.00
67013;BME280;53926;47.406;19.188;2023-01-29T05:44:00;101191.22;;;-1.31;100.00
67013;BME280;53926;47.406;19.188;2023-01-29T05:46:27;101194.09;;;-1.36;100.00
67013;BME280;53926;47.406;19.188;2023-01-29T05:48:53;101195.41;;;-1.30;100.00
67013;BME280;53926;47.406;19.188;2023-01-29T05:51:22;101194.50;;;-1.29;100.00
67013;BME280;53926;47.406;19.188;2023-01-29T05:53:56;101181.59;;;-1.28;100.00
67013;BME280;53926;47.406;19.188;2023-01-29T05:56:23;101192.84;;;-1.30;100.00
67013;BME280;53926;47.406;19.188;2023-01-29T05:58:50;101184.59;;;-1.34;100.00
67013;BME280;53926;47.406;19.188;2023-01-29T06:01:21;101179.75;;;-1.26;100.00
67013;BME280;53926;47.406;19.188;2023-01-29T06:03:48;101184.66;;;-1.22;100.00
67013;BME280;53926;47.406;19.188;2023-01-29T06:06:15;101178.72;;;-1.23;100.00
67013;BME280;53926;47.406;19.188;2023-01-29T06:08:42;101182.19;;;-1.24;100.00
67013;BME280;53926;47.406;19.188;2023-01-29T06:11:10;101201.09;;;-1.27;100.00
67013;BME280;53926;47.406;19.188;2023-01-29T06:13:38;101198.78;;;-1.30;100.00
67013;BME280;53926;47.406;19.188;2023-01-29T06:16:08;101201.84;;;-1.24;100.00
67013;BME280;53926;47.406;19.188;2023-01-29T06:18:38;101206.09;;;-1.25;100.00
67013;BME280;53926;47.406;19.188;2023-01-29T06:21:07;101209.19;;;-1.33;100.00
67013;BME280;53926;47.406;19.188;2023-01-29T06:23:34;101209.50;;;-1.24;100.00
67013;BME280;53926;47.406;19.188;2023-01-29T06:26:10;101216.44;;;-1.27;100.00
67013;BME280;53926;47.406;19.188;2023-01-29T06:28:40;101218.50;;;-1.32;100.00
67013;BME280;53926;47.406;19.188;2023-01-29T06:31:07;101232.88;;;-1.18;100.00
67013;BME280;53926;47.406;19.188;2023-01-29T06:33:55;101235.09;;;-1.13;100.00
67013;BME280;53926;47.406;19.188;2023-01-29T06:36:21;101242.06;;;-1.15;100.00
67013;BME280;53926;47.406;19.188;2023-01-29T06:38:48;101253.06;;;-1.02;100.00
67013;BME280;53926;47.406;19.188;2023-01-29T06:41:17;101245.12;;;-1.10;100.00
67013;BME280;53926;47.406;19.188;2023-01-29T06:43:45;101253.06;;;-1.02;100.00
67013;BME280;53926;47.406;19.188;2023-01-29T06:46:11;101245.50;;;-1.03;100.00
67013;BME280;53926;47.406;19.188;2023-01-29T06:48:40;101253.13;;;-0.91;100.00
67013;BME280;53926;47.406;19.188;2023-01-29T06:51:09;101260.28;;;-0.96;100.00
67013;BME280;53926;47.406;19.188;2023-01-29T06:53:37;101253.97;;;-0.79;100.00
67013;BME280;53926;47.406;19.188;2023-01-29T06:56:04;101258.88;;;-0.76;100.00
67013;BME280;53926;47.406;19.188;2023-01-29T06:58:37;101258.97;;;-0.77;100.00
67013;BME280;53926;47.406;19.188;2023-01-29T07:01:09;101257.37;;;-0.78;100.00
67013;BME280;53926;47.406;19.188;2023-01-29T07:03:58;101253.50;;;-0.60;100.00
67013;BME280;53926;47.406;19.188;2023-01-29T07:06:28;101267.56;;;-0.54;100.00
67013;BME280;53926;47.406;19.188;2023-01-29T07:08:57;101271.53;;;-0.50;100.00
67013;BME280;53926;47.406;19.188;2023-01-29T07:11:24;101270.87;;;-0.41;100.00
67013;BME280;53926;47.406;19.188;2023-01-29T07:13:50;101261.72;;;-0.21;100.00
67013;BME280;53926;47.406;19.188;2023-01-29T07:16:20;101252.34;;;-0.09;100.00
67013;BME280;53926;47.406;19.188;2023-01-29T07:18:46;101247.78;;;-0.05;100.00
67013;BME280;53926;47.406;19.188;2023-01-29T07:21:13;101248.25;;;-0.11;100.00
67013;BME280;53926;47.406;19.188;2023-01-29T07:23:43;101244.19;;;-0.03;100.00
67013;BME280;53926;47.406;19.188;2023-01-29T07:26:10;101250.63;;;0.03;100.00
67013;BME280;53926;47.406;19.188;2023-01-29T07:28:38;101244.31;;;0.07;100.00
67013;BME280;53926;47.406;19.188;2023-01-29T07:31:11;101239.06;;;-0.03;100.00
67013;BME280;53926;47.406;19.188;2023-01-29T07:33:38;101231.31;;;0.22;100.00
67013;BME280;53926;47.406;19.188;2023-01-29T07:36:08;101224.31;;;0.24;100.00
67013;BME280;53926;47.406;19.188;2023-01-29T07:38:35;101226.41;;;0.30;100.00
67013;BME280;53926;47.406;19.188;2023-01-29T07:41:04;101231.25;;;0.67;100.00
67013;BME280;53926;47.406;19.188;2023-01-29T07:43:31;101230.34;;;0.45;100.00
67013;BME280;53926;47.406;19.188;2023-01-29T07:46:02;101233.59;;;0.47;100.00
67013;BME280;53926;47.406;19.188;2023-01-29T07:48:32;101232.09;;;0.45;100.00
67013;BME280;53926;47.406;19.188;2023-01-29T07:51:00;101232.88;;;0.57;100.00
67013;BME280;53926;47.406;19.188;2023-01-29T07:53:27;101231.16;;;0.34;100.00
67013;BME280;53926;47.406;19.188;2023-01-29T07:55:54;101230.09;;;0.48;100.00
67013;BME280;53926;47.406;19.188;2023-01-29T07:58:21;101232.16;;;0.66;100.00
67013;BME280;53926;47.406;19.188;2023-01-29T08:00:50;101223.16;;;0.83;100.00
67013;BME280;53926;47.406;19.188;2023-01-29T08:03:24;101226.09;;;0.78;100.00
67013;BME280;53926;47.406;19.188;2023-01-29T08:05:51;101217.78;;;0.97;100.00
67013;BME280;53926;47.406;19.188;2023-01-29T08:08:20;101226.69;;;0.82;100.00
67013;BME280;53926;47.406;19.188;2023-01-29T08:10:48;101221.91;;;0.77;100.00
67013;BME280;53926;47.406;19.188;2023-01-29T08:13:15;101233.34;;;0.73;100.00
67013;BME280;53926;47.406;19.188;2023-01-29T08:15:45;101229.00;;;0.85;100.00
67013;BME280;53926;47.406;19.188;2023-01-29T08:18:14;101227.56;;;0.92;100.00
67013;BME280;53926;47.406;19.188;2023-01-29T08:20:40;101226.56;;;1.16;100.00
67013;BME280;53926;47.406;19.188;2023-01-29T08:23:12;101218.47;;;0.99;100.00
67013;BME280;53926;47.406;19.188;2023-01-29T08:25:42;101228.16;;;0.84;100.00
67013;BME280;53926;47.406;19.188;2023-01-29T08:28:10;101234.31;;;0.93;100.00
67013;BME280;53926;47.406;19.188;2023-01-29T08:30:41;101239.28;;;1.06;100.00
67013;BME280;53926;47.406;19.188;2023-01-29T08:33:09;101247.91;;;1.16;100.00
67013;BME280;53926;47.406;19.188;2023-01-29T08:35:37;101250.28;;;0.97;100.00
67013;BME280;53926;47.406;19.188;2023-01-29T08:38:04;101244.41;;;1.06;100.00
67013;BME280;53926;47.406;19.188;2023-01-29T08:40:32;101244.06;;;1.11;100.00
67013;BME280;53926;47.406;19.188;2023-01-29T08:43:01;101247.78;;;0.74;100.00
67013;BME280;53926;47.406;19.188;2023-01-29T08:45:32;101248.31;;;0.89;100.00
67013;BME280;53926;47.406;19.188;2023-01-29T08:47:59;101254.47;;;0.98;100.00
67013;BME280;53926;47.406;19.188;2023-01-29T08:50:26;101261.25;;;0.87;100.00
67013;BME280;53926;47.406;19.188;2023-01-29T08:52:57;101264.50;;;1.01;100.00
67013;BME280;53926;47.406;19.188;2023-01-29T08:55:30;101272.00;;;0.81;100.00
67013;BME280;53926;47.406;19.188;2023-01-29T08:57:57;101281.91;;;0.86;100.00
67013;BME280;53926;47.406;19.188;2023-01-29T09:00:25;101272.28;;;0.56;100.00
67013;BME280;53926;47.406;19.188;2023-01-29T09:02:54;101278.31;;;0.77;100.00
67013;BME280;53926;47.406;19.188;2023-01-29T09:05:31;101280.28;;;0.74;100.00
67013;BME280;53926;47.406;19.188;2023-01-29T09:07:59;101290.47;;;0.52;100.00
67013;BME280;53926;47.406;19.188;2023-01-29T09:10:29;101287.19;;;0.62;100.00
67013;BME280;53926;47.406;19.188;2023-01-29T09:12:57;101284.59;;;0.50;100.00
67013;BME280;53926;47.406;19.188;2023-01-29T09:15:24;101284.84;;;0.47;100.00
67013;BME280;53926;47.406;19.188;2023-01-29T09:17:53;101291.59;;;0.71;100.00
67013;BME280;53926;47.406;19.188;2023-01-29T09:20:20;101292.78;;;0.33;100.00
67013;BME280;53926;47.406;19.188;2023-01-29T09:22:47;101291.59;;;0.60;100.00
67013;BME280;53926;47.406;19.188;2023-01-29T09:25:14;101281.25;;;0.73;100.00
67013;BME280;53926;47.406;19.188;2023-01-29T09:27:43;101283.69;;;0.74;100.00
67013;BME280;53926;47.406;19.188;2023-01-29T09:30:10;101294.97;;;0.71;100.00
67013;BME280;53926;47.406;19.188;2023-01-29T09:32:39;101291.84;;;0.45;100.00
67013;BME280;53926;47.406;19.188;2023-01-29T09:35:22;101300.19;;;0.93;100.00
67013;BME280;53926;47.406;19.188;2023-01-29T09:37:50;101289.72;;;0.73;100.00
67013;BME280;53926;47.406;19.188;2023-01-29T09:40:34;101289.22;;;0.91;100.00
67013;BME280;53926;47.406;19.188;2023-01-29T09:43:11;101299.53;;;0.57;100.00
67013;BME280;53926;47.406;19.188;2023-01-29T09:46:06;101303.72;;;0.80;100.00
67013;BME280;53926;47.406;19.188;2023-01-29T09:48:35;101298.94;;;0.64;100.00
67013;BME280;53926;47.406;19.188;2023-01-29T09:51:06;101295.44;;;0.77;100.00
67013;BME280;53926;47.406;19.188;2023-01-29T09:53:44;101309.41;;;0.61;100.00
67013;BME280;53926;47.406;19.188;2023-01-29T09:56:19;101301.87;;;0.71;100.00
67013;BME280;53926;47.406;19.188;2023-01-29T09:58:46;101309.41;;;0.84;100.00
67013;BME280;53926;47.406;19.188;2023-01-29T10:24:22;101304.22;;;1.50;96.83
67013;BME280;53926;47.406;19.188;2023-01-29T10:26:54;101296.09;;;1.45;97.11
67013;BME280;53926;47.406;19.188;2023-01-29T10:29:21;101303.72;;;1.24;97.07
67013;BME280;53926;47.406;19.188;2023-01-29T10:31:53;101288.41;;;1.34;95.72
67013;BME280;53926;47.406;19.188;2023-01-29T10:34:30;101288.88;;;1.28;96.68
67013;BME280;53926;47.406;19.188;2023-01-29T10:37:00;101286.19;;;1.61;95.97
67013;BME280;53926;47.406;19.188;2023-01-29T10:39:29;101297.66;;;1.57;97.76
67013;BME280;53926;47.406;19.188;2023-01-29T10:45:12;101293.28;;;1.37;95.50
67013;BME280;53926;47.406;19.188;2023-01-29T10:56:23;101287.06;;;1.18;93.78
67013;BME280;53926;47.406;19.188;2023-01-29T10:58:58;101287.50;;;0.80;95.80
67013;BME280;53926;47.406;19.188;2023-01-29T11:01:26;101279.94;;;0.89;96.25
67013;BME280;53926;47.406;19.188;2023-01-29T11:04:02;101276.66;;;0.87;95.76
67013;BME280;53926;47.406;19.188;2023-01-29T11:09:31;101265.03;;;1.16;93.77
67013;BME280;53926;47.406;19.188;2023-01-29T11:12:05;101257.19;;;0.85;95.77
67013;BME280;53926;47.406;19.188;2023-01-29T11:14:48;101248.91;;;0.93;97.14
67013;BME280;53926;47.406;19.188;2023-01-29T11:17:21;101250.63;;;1.03;94.48
67013;BME280;53926;47.406;19.188;2023-01-29T11:19:49;101252.84;;;0.97;94.48
67013;BME280;53926;47.406;19.188;2023-01-29T11:22:24;101266.09;;;1.13;93.49
67013;BME280;53926;47.406;19.188;2023-01-29T11:27:52;101257.88;;;0.87;94.89
67013;BME280;53926;47.406;19.188;2023-01-29T11:30:30;101256.63;;;0.81;92.84
67013;BME280;53926;47.406;19.188;2023-01-29T11:33:20;101244.31;;;0.64;95.52
67013;BME280;53926;47.406;19.188;2023-01-29T11:35:47;101244.53;;;0.61;95.16
67013;BME280;53926;47.406;19.188;2023-01-29T11:40:43;101240.50;;;0.91;93.24
67013;BME280;53926;47.406;19.188;2023-01-29T11:43:30;101233.13;;;1.09;93.94
67013;BME280;53926;47.406;19.188;2023-01-29T11:46:03;101225.59;;;1.28;92.72
67013;BME280;53926;47.406;19.188;2023-01-29T11:48:38;101217.94;;;1.38;90.02
67013;BME280;53926;47.406;19.188;2023-01-29T11:51:07;101214.25;;;1.31;89.58
67013;BME280;53926;47.406;19.188;2023-01-29T11:53:37;101213.06;;;1.35;90.37
67013;BME280;53926;47.406;19.188;2023-01-29T11:56:14;101211.50;;;0.90;90.84
67013;BME280;53926;47.406;19.188;2023-01-29T11:58:43;101206.53;;;1.31;91.07
67013;BME280;53926;47.406;19.188;2023-01-29T12:01:29;101196.69;;;1.78;88.88
67013;BME280;53926;47.406;19.188;2023-01-29T12:03:59;101195.03;;;1.98;84.61
67013;BME280;53926;47.406;19.188;2023-01-29T12:06:34;101190.13;;;1.64;86.40
67013;BME280;53926;47.406;19.188;2023-01-29T12:09:09;101191.03;;;1.32;88.73
67013;BME280;53926;47.406;19.188;2023-01-29T12:11:42;101182.69;;;0.98;88.60
67013;BME280;53926;47.406;19.188;2023-01-29T12:22:09;101180.22;;;0.64;88.67
67013;BME280;53926;47.406;19.188;2023-01-29T12:25:03;101180.22;;;0.96;87.85
67013;BME280;53926;47.406;19.188;2023-01-29T12:27:43;101187.59;;;0.89;89.44
67013;BME280;53926;47.406;19.188;2023-01-29T12:35:45;101185.87;;;1.11;84.47
67013;BME280;53926;47.406;19.188;2023-01-29T12:38:18;101189.72;;;1.38;82.75
67013;BME280;53926;47.406;19.188;2023-01-29T12:43:47;101172.97;;;0.80;85.08
67013;BME280;53926;47.406;19.188;2023-01-29T12:46:26;101177.34;;;0.57;86.28
67013;BME280;53926;47.406;19.188;2023-01-29T12:48:58;101186.19;;;0.53;84.85
67013;BME280;53926;47.406;19.188;2023-01-29T12:51:32;101182.47;;;0.57;84.56
67013;BME280;53926;47.406;19.188;2023-01-29T12:54:18;101180.19;;;0.75;86.15
67013;BME280;53926;47.406;19.188;2023-01-29T12:56:50;101180.78;;;0.79;84.89
67013;BME280;53926;47.406;19.188;2023-01-29T12:59:27;101169.91;;;0.75;84.47
67013;BME280;53926;47.406;19.188;2023-01-29T13:04:47;101177.22;;;0.91;82.36
67013;BME280;53926;47.406;19.188;2023-01-29T13:07:26;101174.47;;;1.04;84.54
67013;BME280;53926;47.406;19.188;2023-01-29T13:09:58;101166.06;;;1.34;80.79
67013;BME280;53926;47.406;19.188;2023-01-29T13:12:27;101159.09;;;1.04;83.70
67013;BME280;53926;47.406;19.188;2023-01-29T13:15:05;101151.53;;;1.45;80.46
67013;BME280;53926;47.406;19.188;2023-01-29T13:17:39;101148.69;;;0.84;83.33
67013;BME280;53926;47.406;19.188;2023-01-29T13:20:15;101140.69;;;1.20;80.87
67013;BME280;53926;47.406;19.188;2023-01-29T13:22:46;101139.47;;;1.14;81.71
67013;BME280;53926;47.406;19.188;2023-01-29T13:25:17;101139.53;;;1.24;82.10
67013;BME280;53926;47.406;19.188;2023-01-29T13:27:46;101137.09;;;1.22;80.39
67013;BME280;53926;47.406;19.188;2023-01-29T13:30:28;101130.31;;;1.21;80.86
67013;BME280;53926;47.406;19.188;2023-01-29T13:32:55;101130.56;;;1.39;83.03
67013;BME280;53926;47.406;19.188;2023-01-29T13:35:40;101120.41;;;1.59;78.08
67013;BME280;53926;47.406;19.188;2023-01-29T13:38:37;101118.37;;;1.63;79.99
67013;BME280;53926;47.406;19.188;2023-01-29T13:41:05;101112.69;;;1.90;75.65
67013;BME280;53926;47.406;19.188;2023-01-29T13:43:42;101114.69;;;1.86;77.67
67013;BME280;53926;47.406;19.188;2023-01-29T13:46:17;101104.25;;;2.48;74.10
67013;BME280;53926;47.406;19.188;2023-01-29T13:48:49;101105.97;;;1.68;76.66
67013;BME280;53926;47.406;19.188;2023-01-29T13:51:20;101112.63;;;2.21;75.42
67013;BME280;53926;47.406;19.188;2023-01-29T13:54:38;101109.16;;;2.61;75.07
67013;BME280;53926;47.406;19.188;2023-01-29T14:10:36;101121.03;;;1.51;77.05
67013;BME280;53926;47.406;19.188;2023-01-29T14:15:34;101098.84;;;1.19;76.56
67013;BME280;53926;47.406;19.188;2023-01-29T14:20:37;101108.94;;;1.11;75.62
67013;BME280;53926;47.406;19.188;2023-01-29T14:23:31;101112.53;;;0.66;78.51
67013;BME280;53926;47.406;19.188;2023-01-29T14:26:00;101131.41;;;0.65;79.47
67013;BME280;53926;47.406;19.188;2023-01-29T14:28:31;101129.63;;;0.77;76.75
67013;BME280;53926;47.406;19.188;2023-01-29T14:30:59;101125.94;;;0.59;77.90
67013;BME280;53926;47.406;19.188;2023-01-29T14:33:37;101129.97;;;0.40;78.99
67013;BME280;53926;47.406;19.188;2023-01-29T14:36:11;101125.09;;;0.26;79.18
67013;BME280;53926;47.406;19.188;2023-01-29T14:38:45;101123.47;;;0.13;80.42
67013;BME280;53926;47.406;19.188;2023-01-29T14:41:28;101131.53;;;-0.03;80.34
67013;BME280;53926;47.406;19.188;2023-01-29T14:48:08;101134.06;;;-0.48;84.05
67013;BME280;53926;47.406;19.188;2023-01-29T14:53:05;101130.88;;;-0.74;86.74
67013;BME280;53926;47.406;19.188;2023-01-29T14:55:49;101127.97;;;-0.81;88.48
67013;BME280;53926;47.406;19.188;2023-01-29T14:58:40;101134.72;;;-0.80;88.56
67013;BME280;53926;47.406;19.188;2023-01-29T15:01:30;101136.44;;;-0.80;87.56
67013;BME280;53926;47.406;19.188;2023-01-29T15:04:16;101145.03;;;-0.93;87.80
67013;BME280;53926;47.406;19.188;2023-01-29T15:06:47;101147.31;;;-1.01;89.91
67013;BME280;53926;47.406;19.188;2023-01-29T15:17:53;101152.59;;;-1.64;92.79
67013;BME280;53926;47.406;19.188;2023-01-29T15:22:57;101150.88;;;-1.76;93.61
67013;BME280;53926;47.406;19.188;2023-01-29T15:25:26;101152.66;;;-1.89;93.65
67013;BME280;53926;47.406;19.188;2023-01-29T15:28:04;101145.66;;;-1.99;94.68